sensor_id;sensor_type;location;lat;lon;timestamp;pressure;altitude;pressure_sealevel;temperature;humidity
35551;BME280;21655;46.056;13.616;2023-03-15T00:01:25;99116.44;;;8.19;100.00
35551;BME280;21655;46.056;13.616;2023-03-15T00:03:51;99115.94;;;8.16;100.00
35551;BME280;21655;46.056;13.616;2023-03-15T00:06:19;99117.50;;;8.18;100.00
35551;BME280;21655;46.056;13.616;2023-03-15T00:08:45;99110.06;;;8.19;100.00
35551;BME280;21655;46.056;13.616;2023-03-15T00:11:12;99113.13;;;8.24;100.00
35551;BME280;21655;46.056;13.616;2023-03-15T00:13:38;99120.59;;;8.15;100.00
35551;BME280;21655;46.056;13.616;2023-03-15T00:16:04;99116.81;;;8.16;100.00
35551;BME280;21655;46.056;13.616;2023-03-15T00:18:30;99122.69;;;8.13;100.00
35551;BME280;21655;46.056;13.616;2023-03-15T00:20:56;99116.63;;;8.18;100.00
35551;BME280;21655;46.056;13.616;2023-03-15T00:23:22;99118.53;;;8.17;100.00
35551;BME280;21655;46.056;13.616;2023-03-15T00:25:50;99123.03;;;8.18;100.00
35551;BME280;21655;46.056;13.616;2023-03-15T00:28:15;99125.53;;;8.34;100.00
35551;BME280;21655;46.056;13.616;2023-03-15T00:30:41;99127.44;;;8.34;100.00
35551;BME280;21655;46.056;13.616;2023-03-15T00:33:07;99129.47;;;8.25;100.00
35551;BME280;21655;46.056;13.616;2023-03-15T00:35:37;99131.09;;;8.20;100.00
35551;BME280;21655;46.056;13.616;2023-03-15T00:38:02;99130.41;;;8.32;100.00
35551;BME280;21655;46.056;13.616;2023-03-15T00:40:29;99125.97;;;8.38;100.00
35551;BME280;21655;46.056;13.616;2023-03-15T00:42:54;99126.78;;;8.32;100.00
35551;BME280;21655;46.056;13.616;2023-03-15T00:45:22;99119.66;;;8.23;100.00
35551;BME280;21655;46.056;13.616;2023-03-15T00:47:49;99117.28;;;8.20;100.00
35551;BME280;21655;46.056;13.616;2023-03-15T00:50:15;99116.81;;;8.16;100.00
35551;BME280;21655;46.056;13.616;2023-03-15T00:52:40;99135.97;;;8.18;100.00
35551;BME280;21655;46.056;13.616;2023-03-15T00:55:10;99133.19;;;8.18;100.00
35551;BME280;21655;46.056;13.616;2023-03-15T00:57:38;99131.97;;;8.20;100.00
35551;BME280;21655;46.056;13.616;2023-03-15T01:00:06;99139.47;;;8.12;100.00
35551;BME280;21655;46.056;13.616;2023-03-15T01:02:33;99135.66;;;8.13;100.00
35551;BME280;21655;46.056;13.616;2023-03-15T01:04:58;99139.47;;;8.12;100.00
35551;BME280;21655;46.056;13.616;2023-03-15T01:07:24;99142.69;;;8.15;100.00
35551;BME280;21655;46.056;13.616;2023-03-15T01:09:49;99139.25;;;8.13;100.00
35551;BME280;21655;46.056;13.616;2023-03-15T01:12:15;99142.03;;;8.13;100.00
35551;BME280;21655;46.056;13.616;2023-03-15T01:14:40;99140.78;;;8.16;100.00
35551;BME280;21655;46.056;13.616;2023-03-15T01:17:06;99135.97;;;8.18;100.00
35551;BME280;21655;46.056;13.616;2023-03-15T01:19:31;99139.09;;;8.15;100.00
35551;BME280;21655;46.056;13.616;2023-03-15T01:21:56;99145.19;;;8.25;100.00
35551;BME280;21655;46.056;13.616;2023-03-15T01:24:22;99144.06;;;8.19;100.00
35551;BME280;21655;46.056;13.616;2023-03-15T01:26:47;99145.66;;;8.14;100.00
35551;BME280;21655;46.056;13.616;2023-03-15T01:29:13;99143.94;;;8.13;100.00
35551;BME280;21655;46.056;13.616;2023-03-15T01:31:39;99147.53;;;8.13;100.00
35551;BME280;21655;46.056;13.616;2023-03-15T01:34:04;99147.00;;;8.18;100.00
35551;BME280;21655;46.056;13.616;2023-03-15T01:36:30;99147.38;;;8.15;100.00
35551;BME280;21655;46.056;13.616;2023-03-15T01:38:56;99143.00;;;8.20;100.00
35551;BME280;21655;46.056;13.616;2023-03-15T01:41:21;99145.25;;;8.17;100.00
35551;BME280;21655;46.056;13.616;2023-03-15T01:43:49;99145.41;;;8.09;100.00
35551;BME280;21655;46.056;13.616;2023-03-15T01:46:28;99143.69;;;8.08;100.00
35551;BME280;21655;46.056;13.616;2023-03-15T01:54:26;99157.75;;;8.13;100.00
35551;BME280;21655;46.056;13.616;2023-03-15T01:57:02;99154.72;;;8.08;100.00
35551;BME280;21655;46.056;13.616;2023-03-15T01:59:33;99148.06;;;8.02;100.00
35551;BME280;21655;46.056;13.616;2023-03-15T02:02:00;99154.25;;;8.04;100.00
35551;BME280;21655;46.056;13.616;2023-03-15T02:04:33;99161.56;;;8.12;100.00
35551;BME280;21655;46.056;13.616;2023-03-15T02:07:01;99158.31;;;8.08;100.00
35551;BME280;21655;46.056;13.616;2023-03-15T02:09:45;99161.75;;;8.10;100.00
35551;BME280;21655;46.056;13.616;2023-03-15T02:12:11;99168.22;;;8.03;100.00
35551;BME280;21655;46.056;13.616;2023-03-15T02:14:38;99178.03;;;8.05;100.00
35551;BME280;21655;46.056;13.616;2023-03-15T02:17:05;99181.72;;;8.12;100.00
35551;BME280;21655;46.056;13.616;2023-03-15T02:19:39;99176.84;;;8.14;100.00
35551;BME280;21655;46.056;13.616;2023-03-15T02:28:02;99185.44;;;8.05;100.00
35551;BME280;21655;46.056;13.616;2023-03-15T02:30:28;99197.09;;;8.00;100.00
35551;BME280;21655;46.056;13.616;2023-03-15T02:32:53;99195.66;;;8.04;100.00
35551;BME280;21655;46.056;13.616;2023-03-15T02:35:27;99193.06;;;8.03;100.00
35551;BME280;21655;46.056;13.616;2023-03-15T02:37:53;99194.50;;;7.99;100.00
35551;BME280;21655;46.056;13.616;2023-03-15T02:40:21;99195.28;;;7.93;100.00
35551;BME280;21655;46.056;13.616;2023-03-15T02:42:50;99193.75;;;7.90;100.00
35551;BME280;21655;46.056;13.616;2023-03-15T02:45:18;99202.44;;;7.87;100.00
35551;BME280;21655;46.056;13.616;2023-03-15T02:47:45;99202.13;;;7.97;100.00
35551;BME280;21655;46.056;13.616;2023-03-15T02:50:11;99205.28;;;7.94;100.00
35551;BME280;21655;46.056;13.616;2023-03-15T02:52:37;99209.19;;;7.99;100.00
35551;BME280;21655;46.056;13.616;2023-03-15T02:55:02;99208.44;;;7.91;100.00
35551;BME280;21655;46.056;13.616;2023-03-15T02:57:28;99218.41;;;7.92;100.00
35551;BME280;21655;46.056;13.616;2023-03-15T02:59:53;99228.03;;;7.96;100.00
35551;BME280;21655;46.056;13.616;2023-03-15T03:02:20;99233.06;;;7.92;100.00
35551;BME280;21655;46.056;13.616;2023-03-15T03:04:46;99231.84;;;7.95;100.00
35551;BME280;21655;46.056;13.616;2023-03-15T03:07:12;99243.81;;;7.87;100.00
35551;BME280;21655;46.056;13.616;2023-03-15T03:09:37;99245.06;;;7.85;100.00
35551;BME280;21655;46.056;13.616;2023-03-15T03:12:03;99253.16;;;7.86;100.00
35551;BME280;21655;46.056;13.616;2023-03-15T03:14:29;99247.72;;;7.93;100.00
35551;BME280;21655;46.056;13.616;2023-03-15T03:16:55;99267.06;;;7.93;100.00
35551;BME280;21655;46.056;13.616;2023-03-15T03:19:21;99262.19;;;7.95;100.00
35551;BME280;21655;46.056;13.616;2023-03-15T03:21:50;99262.19;;;7.95;100.00
35551;BME280;21655;46.056;13.616;2023-03-15T03:24:17;99264.63;;;7.90;100.00
35551;BME280;21655;46.056;13.616;2023-03-15T03:26:43;99274.06;;;7.95;100.00
35551;BME280;21655;46.056;13.616;2023-03-15T03:29:13;99267.72;;;7.95;100.00
35551;BME280;21655;46.056;13.616;2023-03-15T03:31:41;99283.22;;;7.96;100.00
35551;BME280;21655;46.056;13.616;2023-03-15T03:34:07;99281.22;;;8.04;100.00
35551;BME280;21655;46.056;13.616;2023-03-15T03:36:35;99289.88;;;8.01;100.00
35551;BME280;21655;46.056;13.616;2023-03-15T03:39:00;99289.41;;;7.98;100.00
35551;BME280;21655;46.056;13.616;2023-03-15T03:41:26;99302.16;;;7.99;100.00
35551;BME280;21655;46.056;13.616;2023-03-15T03:43:52;99304.53;;;8.02;100.00
35551;BME280;21655;46.056;13.616;2023-03-15T03:46:17;99303.19;;;7.98;100.00
35551;BME280;21655;46.056;13.616;2023-03-15T03:48:43;99318.59;;;8.07;100.00
35551;BME280;21655;46.056;13.616;2023-03-15T03:51:08;99316.72;;;8.07;100.00
35551;BME280;21655;46.056;13.616;2023-03-15T03:53:34;99314.34;;;8.04;100.00
35551;BME280;21655;46.056;13.616;2023-03-15T03:55:59;99326.13;;;7.98;100.00
35551;BME280;21655;46.056;13.616;2023-03-15T03:58:28;99325.47;;;7.96;100.00
35551;BME280;21655;46.056;13.616;2023-03-15T04:00:53;99326.72;;;7.94;100.00
35551;BME280;21655;46.056;13.616;2023-03-15T04:03:19;99331.91;;;7.89;100.00
35551;BME280;21655;46.056;13.616;2023-03-15T04:05:54;99341.84;;;7.98;100.00
35551;BME280;21655;46.056;13.616;2023-03-15T04:08:20;99348.19;;;7.98;100.00
35551;BME280;21655;46.056;13.616;2023-03-15T04:10:51;99352.94;;;7.90;100.00
35551;BME280;21655;46.056;13.616;2023-03-15T04:13:18;99355.53;;;7.91;100.00
35551;BME280;21655;46.056;13.616;2023-03-15T04:15:43;99362.50;;;8.02;100.00
35551;BME280;21655;46.056;13.616;2023-03-15T04:18:08;99357.53;;;7.97;100.00
35551;BME280;21655;46.056;13.616;2023-03-15T04:20:34;99363.16;;;8.04;100.00
35551;BME280;21655;46.056;13.616;2023-03-15T04:23:00;99361.66;;;8.01;100.00
35551;BME280;21655;46.056;13.616;2023-03-15T04:25:26;99361.81;;;8.00;100.00
35551;BME280;21655;46.056;13.616;2023-03-15T04:27:52;99365.63;;;7.99;100.00
35551;BME280;21655;46.056;13.616;2023-03-15T04:30:28;99373.03;;;7.98;100.00
35551;BME280;21655;46.056;13.616;2023-03-15T04:32:55;99369.94;;;8.01;100.00
35551;BME280;21655;46.056;13.616;2023-03-15T04:35:24;99385.22;;;8.04;100.00
35551;BME280;21655;46.056;13.616;2023-03-15T04:37:50;99380.38;;;8.06;100.00
35551;BME280;21655;46.056;13.616;2023-03-15T04:40:16;99390.31;;;8.00;100.00
35551;BME280;21655;46.056;13.616;2023-03-15T04:42:41;99382.69;;;8.02;100.00
35551;BME280;21655;46.056;13.616;2023-03-15T04:45:07;99387.16;;;8.03;100.00
35551;BME280;21655;46.056;13.616;2023-03-15T04:47:32;99389.16;;;8.09;100.00
35551;BME280;21655;46.056;13.616;2023-03-15T04:49:58;99393.34;;;7.91;100.00
35551;BME280;21655;46.056;13.616;2023-03-15T04:52:23;99391.41;;;7.91;100.00
35551;BME280;21655;46.056;13.616;2023-03-15T04:54:49;99398.09;;;7.97;100.00
35551;BME280;21655;46.056;13.616;2023-03-15T04:57:14;99393.22;;;7.99;100.00
35551;BME280;21655;46.056;13.616;2023-03-15T04:59:40;99405.59;;;8.03;100.00
35551;BME280;21655;46.056;13.616;2023-03-15T05:02:05;99406.28;;;8.05;100.00
35551;BME280;21655;46.056;13.616;2023-03-15T05:04:31;99408.84;;;8.06;100.00
35551;BME280;21655;46.056;13.616;2023-03-15T05:06:56;99402.84;;;8.03;100.00
35551;BME280;21655;46.056;13.616;2023-03-15T05:09:22;99404.75;;;8.02;100.00
35551;BME280;21655;46.056;13.616;2023-03-15T05:11:47;99407.97;;;8.06;100.00
35551;BME280;21655;46.056;13.616;2023-03-15T05:14:13;99406.66;;;8.02;100.00
35551;BME280;21655;46.056;13.616;2023-03-15T05:16:38;99409.53;;;8.08;100.00
35551;BME280;21655;46.056;13.616;2023-03-15T05:19:04;99398.88;;;8.05;100.00
35551;BME280;21655;46.056;13.616;2023-03-15T05:21:30;99399.34;;;8.09;100.00
35551;BME280;21655;46.056;13.616;2023-03-15T05:23:56;99396.59;;;8.09;100.00
35551;BME280;21655;46.056;13.616;2023-03-15T05:26:22;99393.44;;;8.12;100.00
35551;BME280;21655;46.056;13.616;2023-03-15T05:28:49;99400.75;;;8.05;100.00
35551;BME280;21655;46.056;13.616;2023-03-15T05:31:16;99402.72;;;7.96;100.00
35551;BME280;21655;46.056;13.616;2023-03-15T05:33:42;99400.84;;;7.97;100.00
35551;BME280;21655;46.056;13.616;2023-03-15T05:36:11;99407.31;;;8.04;100.00
35551;BME280;21655;46.056;13.616;2023-03-15T05:38:40;99414.00;;;8.09;100.00
35551;BME280;21655;46.056;13.616;2023-03-15T05:41:07;99399.34;;;8.09;100.00
35551;BME280;21655;46.056;13.616;2023-03-15T05:43:32;99406.47;;;8.03;100.00
35551;BME280;21655;46.056;13.616;2023-03-15T05:45:58;99409.63;;;8.00;100.00
35551;BME280;21655;46.056;13.616;2023-03-15T05:48:23;99413.16;;;8.09;100.00
35551;BME280;21655;46.056;13.616;2023-03-15T05:50:49;99419.13;;;7.98;100.00
35551;BME280;21655;46.056;13.616;2023-03-15T05:53:14;99429.50;;;7.96;100.00
35551;BME280;21655;46.056;13.616;2023-03-15T05:55:40;99426.72;;;7.96;100.00
35551;BME280;21655;46.056;13.616;2023-03-15T05:58:05;99432.81;;;7.91;100.00
35551;BME280;21655;46.056;13.616;2023-03-15T06:00:31;99436.00;;;8.17;100.00
35551;BME280;21655;46.056;13.616;2023-03-15T06:02:56;99442.81;;;8.29;100.00
35551;BME280;21655;46.056;13.616;2023-03-15T06:05:22;99444.63;;;8.37;100.00
35551;BME280;21655;46.056;13.616;2023-03-15T06:07:47;99449.31;;;8.36;100.00
35551;BME280;21655;46.056;13.616;2023-03-15T06:10:13;99451.38;;;8.20;100.00
35551;BME280;21655;46.056;13.616;2023-03-15T06:12:38;99451.81;;;8.09;100.00
35551;BME280;21655;46.056;13.616;2023-03-15T06:15:04;99464.72;;;8.08;100.00
35551;BME280;21655;46.056;13.616;2023-03-15T06:17:30;99471.69;;;8.04;100.00
35551;BME280;21655;46.056;13.616;2023-03-15T06:19:56;99484.22;;;8.07;100.00
35551;BME280;21655;46.056;13.616;2023-03-15T06:22:21;99486.66;;;8.10;100.00
35551;BME280;21655;46.056;13.616;2023-03-15T06:24:48;99495.75;;;8.10;100.00
35551;BME280;21655;46.056;13.616;2023-03-15T06:27:14;99499.28;;;8.04;100.00
35551;BME280;21655;46.056;13.616;2023-03-15T06:29:39;99510.81;;;8.08;100.00
35551;BME280;21655;46.056;13.616;2023-03-15T06:32:05;99518.34;;;8.14;100.00
35551;BME280;21655;46.056;13.616;2023-03-15T06:34:31;99523.16;;;8.20;100.00
35551;BME280;21655;46.056;13.616;2023-03-15T06:36:56;99533.19;;;8.13;100.00
35551;BME280;21655;46.056;13.616;2023-03-15T06:39:22;99535.59;;;8.16;100.00
35551;BME280;21655;46.056;13.616;2023-03-15T06:41:48;99530.38;;;8.21;100.00
35551;BME280;21655;46.056;13.616;2023-03-15T06:44:13;99536.41;;;8.24;100.00
35551;BME280;21655;46.056;13.616;2023-03-15T06:46:39;99532.22;;;8.28;100.00
35551;BME280;21655;46.056;13.616;2023-03-15T06:49:04;99540.88;;;8.25;100.00
35551;BME280;21655;46.056;13.616;2023-03-15T06:51:30;99549.47;;;8.30;100.00
35551;BME280;21655;46.056;13.616;2023-03-15T06:53:55;99543.22;;;8.51;100.00
35551;BME280;21655;46.056;13.616;2023-03-15T06:56:21;99554.94;;;8.53;100.00
35551;BME280;21655;46.056;13.616;2023-03-15T06:58:46;99547.06;;;8.64;100.00
35551;BME280;21655;46.056;13.616;2023-03-15T07:01:14;99558.81;;;8.81;100.00
35551;BME280;21655;46.056;13.616;2023-03-15T07:03:40;99549.97;;;9.00;100.00
35551;BME280;21655;46.056;13.616;2023-03-15T07:06:06;99549.78;;;9.16;100.00
35551;BME280;21655;46.056;13.616;2023-03-15T07:08:32;99551.28;;;9.32;100.00
35551;BME280;21655;46.056;13.616;2023-03-15T07:10:57;99554.72;;;9.34;100.00
35551;BME280;21655;46.056;13.616;2023-03-15T07:13:23;99570.28;;;9.50;100.00
35551;BME280;21655;46.056;13.616;2023-03-15T07:15:52;99578.53;;;9.64;100.00
35551;BME280;21655;46.056;13.616;2023-03-15T07:18:18;99579.75;;;9.76;100.00
35551;BME280;21655;46.056;13.616;2023-03-15T07:20:44;99586.63;;;9.80;100.00
35551;BME280;21655;46.056;13.616;2023-03-15T07:23:09;99596.22;;;9.99;100.00
35551;BME280;21655;46.056;13.616;2023-03-15T07:25:35;99598.13;;;9.98;100.00
35551;BME280;21655;46.056;13.616;2023-03-15T07:28:00;99608.59;;;10.17;100.00
35551;BME280;21655;46.056;13.616;2023-03-15T07:30:26;99596.59;;;10.31;100.00
35551;BME280;21655;46.056;13.616;2023-03-15T07:32:52;99616.72;;;10.61;100.00
35551;BME280;21655;46.056;13.616;2023-03-15T07:35:17;99617.38;;;10.84;100.00
35551;BME280;21655;46.056;13.616;2023-03-15T07:37:43;99614.97;;;11.02;100.00
35551;BME280;21655;46.056;13.616;2023-03-15T07:40:09;99625.59;;;10.98;100.00
35551;BME280;21655;46.056;13.616;2023-03-15T07:42:35;99629.13;;;11.13;100.00
35551;BME280;21655;46.056;13.616;2023-03-15T07:45:03;99627.25;;;11.20;100.00
35551;BME280;21655;46.056;13.616;2023-03-15T07:47:29;99632.91;;;11.33;100.00
35551;BME280;21655;46.056;13.616;2023-03-15T07:49:55;99630.28;;;11.52;100.00
35551;BME280;21655;46.056;13.616;2023-03-15T07:52:20;99634.88;;;11.66;100.00
35551;BME280;21655;46.056;13.616;2023-03-15T07:54:46;99635.94;;;11.65;100.00
35551;BME280;21655;46.056;13.616;2023-03-15T07:57:12;99626.63;;;11.79;100.00
35551;BME280;21655;46.056;13.616;2023-03-15T07:59:37;99636.09;;;11.98;100.00
35551;BME280;21655;46.056;13.616;2023-03-15T08:02:03;99646.88;;;12.20;100.00
35551;BME280;21655;46.056;13.616;2023-03-15T08:04:29;99643.09;;;12.34;100.00
35551;BME280;21655;46.056;13.616;2023-03-15T08:06:55;99642.69;;;12.44;100.00
35551;BME280;21655;46.056;13.616;2023-03-15T08:09:20;99638.63;;;12.46;100.00
35551;BME280;21655;46.056;13.616;2023-03-15T08:11:46;99646.25;;;12.25;100.00
35551;BME280;21655;46.056;13.616;2023-03-15T08:14:11;99651.38;;;12.21;100.00
35551;BME280;21655;46.056;13.616;2023-03-15T08:16:37;99650.75;;;12.26;100.00
35551;BME280;21655;46.056;13.616;2023-03-15T08:19:02;99653.59;;;12.39;100.00
35551;BME280;21655;46.056;13.616;2023-03-15T08:21:28;99646.50;;;12.36;100.00
35551;BME280;21655;46.056;13.616;2023-03-15T08:23:53;99660.38;;;12.30;100.00
35551;BME280;21655;46.056;13.616;2023-03-15T08:26:19;99666.19;;;12.41;100.00
35551;BME280;21655;46.056;13.616;2023-03-15T08:28:44;99654.00;;;12.36;100.00
35551;BME280;21655;46.056;13.616;2023-03-15T08:31:10;99661.50;;;12.42;100.00
35551;BME280;21655;46.056;13.616;2023-03-15T08:33:38;99657.22;;;12.46;93.38
35551;BME280;21655;46.056;13.616;2023-03-15T08:36:04;99658.56;;;12.63;98.56
35551;BME280;21655;46.056;13.616;2023-03-15T08:38:30;99654.09;;;12.81;92.79
35551;BME280;21655;46.056;13.616;2023-03-15T08:40:56;99663.75;;;12.92;83.85
35551;BME280;21655;46.056;13.616;2023-03-15T08:43:22;99665.72;;;13.43;79.37
35551;BME280;21655;46.056;13.616;2023-03-15T08:45:48;99665.38;;;14.16;78.73
35551;BME280;21655;46.056;13.616;2023-03-15T08:48:14;99670.00;;;14.35;71.69
35551;BME280;21655;46.056;13.616;2023-03-15T08:50:40;99668.13;;;14.66;67.33
35551;BME280;21655;46.056;13.616;2023-03-15T08:53:05;99686.56;;;14.30;67.65
35551;BME280;21655;46.056;13.616;2023-03-15T08:55:32;99674.34;;;14.11;65.76
35551;BME280;21655;46.056;13.616;2023-03-15T08:57:57;99672.19;;;14.20;65.24
35551;BME280;21655;46.056;13.616;2023-03-15T09:00:25;99681.47;;;13.94;66.64
35551;BME280;21655;46.056;13.616;2023-03-15T09:02:52;99683.63;;;13.92;65.50
35551;BME280;21655;46.056;13.616;2023-03-15T09:05:18;99687.31;;;13.73;65.95
35551;BME280;21655;46.056;13.616;2023-03-15T09:07:45;99684.53;;;13.73;64.44
35551;BME280;21655;46.056;13.616;2023-03-15T09:10:12;99694.59;;;13.74;66.80
35551;BME280;21655;46.056;13.616;2023-03-15T09:12:43;99688.41;;;13.72;65.08
35551;BME280;21655;46.056;13.616;2023-03-15T09:15:10;99691.81;;;13.81;65.65
35551;BME280;21655;46.056;13.616;2023-03-15T09:17:37;99699.28;;;13.80;69.10
35551;BME280;21655;46.056;13.616;2023-03-15T09:20:04;99694.59;;;13.74;67.68
35551;BME280;21655;46.056;13.616;2023-03-15T09:22:35;99705.31;;;13.71;67.78
35551;BME280;21655;46.056;13.616;2023-03-15T09:25:01;99714.56;;;13.65;66.73
35551;BME280;21655;46.056;13.616;2023-03-15T09:27:29;99702.78;;;13.50;61.83
35551;BME280;21655;46.056;13.616;2023-03-15T09:29:55;99712.84;;;13.57;64.77
35551;BME280;21655;46.056;13.616;2023-03-15T09:32:20;99713.28;;;13.48;63.04
35551;BME280;21655;46.056;13.616;2023-03-15T09:34:46;99717.34;;;13.52;65.61
35551;BME280;21655;46.056;13.616;2023-03-15T09:37:12;99718.41;;;13.70;65.63
35551;BME280;21655;46.056;13.616;2023-03-15T09:39:37;99714.72;;;13.96;67.30
35551;BME280;21655;46.056;13.616;2023-03-15T09:42:14;99724.97;;;14.15;67.19
35551;BME280;21655;46.056;13.616;2023-03-15T09:44:46;99729.03;;;14.12;63.08
35551;BME280;21655;46.056;13.616;2023-03-15T09:50:32;99741.09;;;14.63;61.70
35551;BME280;21655;46.056;13.616;2023-03-15T09:53:37;99730.25;;;14.49;59.46
35551;BME280;21655;46.056;13.616;2023-03-15T09:55:56;99737.53;;;14.94;56.99
35551;BME280;21655;46.056;13.616;2023-03-15T09:58:28;99734.50;;;14.95;55.51
35551;BME280;21655;46.056;13.616;2023-03-15T10:01:01;99736.13;;;15.46;54.22
35551;BME280;21655;46.056;13.616;2023-03-15T10:03:45;99736.66;;;16.46;50.06
35551;BME280;21655;46.056;13.616;2023-03-15T10:08:40;99726.59;;;19.17;45.90
35551;BME280;21655;46.056;13.616;2023-03-15T10:16:48;99750.84;;;19.95;39.72
35551;BME280;21655;46.056;13.616;2023-03-15T10:24:48;99746.81;;;21.64;34.72
35551;BME280;21655;46.056;13.616;2023-03-15T10:29:46;99746.25;;;20.39;34.75
35551;BME280;21655;46.056;13.616;2023-03-15T10:32:18;99739.28;;;22.74;32.92
35551;BME280;21655;46.056;13.616;2023-03-15T10:34:47;99747.41;;;23.17;31.04
35551;BME280;21655;46.056;13.616;2023-03-15T10:37:13;99744.56;;;23.98;29.22
35551;BME280;21655;46.056;13.616;2023-03-15T10:39:39;99747.38;;;23.93;28.32
35551;BME280;21655;46.056;13.616;2023-03-15T10:42:29;99755.16;;;22.85;28.64
35551;BME280;21655;46.056;13.616;2023-03-15T10:44:55;99750.03;;;23.33;28.51
35551;BME280;21655;46.056;13.616;2023-03-15T10:47:23;99747.38;;;23.93;27.90
35551;BME280;21655;46.056;13.616;2023-03-15T10:49:50;99755.53;;;23.80;27.52
35551;BME280;21655;46.056;13.616;2023-03-15T10:52:35;99757.19;;;23.71;27.58
35551;BME280;21655;46.056;13.616;2023-03-15T10:55:11;99745.66;;;24.12;27.67
35551;BME280;21655;46.056;13.616;2023-03-15T10:57:41;99756.53;;;23.39;26.58
35551;BME280;21655;46.056;13.616;2023-03-15T11:00:31;99743.69;;;24.13;26.69
35551;BME280;21655;46.056;13.616;2023-03-15T11:03:06;99755.88;;;23.83;26.29
35551;BME280;21655;46.056;13.616;2023-03-15T11:05:42;99753.84;;;23.02;26.38
35551;BME280;21655;46.056;13.616;2023-03-15T11:08:14;99760.47;;;22.77;27.08
35551;BME280;21655;46.056;13.616;2023-03-15T11:10:40;99766.41;;;21.54;27.04
35551;BME280;21655;46.056;13.616;2023-03-15T11:15:39;99772.28;;;18.04;29.95
35551;BME280;21655;46.056;13.616;2023-03-15T11:18:17;99768.88;;;18.25;31.47
35551;BME280;21655;46.056;13.616;2023-03-15T11:20:43;99776.94;;;19.91;29.91
35551;BME280;21655;46.056;13.616;2023-03-15T11:23:23;99762.94;;;22.63;27.16
35551;BME280;21655;46.056;13.616;2023-03-15T11:25:50;99769.69;;;22.57;27.11
35551;BME280;21655;46.056;13.616;2023-03-15T11:28:18;99772.97;;;23.37;26.57
35551;BME280;21655;46.056;13.616;2023-03-15T11:30:46;99768.47;;;22.90;24.69
35551;BME280;21655;46.056;13.616;2023-03-15T11:36:12;99771.28;;;22.90;24.74
35551;BME280;21655;46.056;13.616;2023-03-15T11:38:40;99770.41;;;22.84;23.89
35551;BME280;21655;46.056;13.616;2023-03-15T11:43:51;99770.88;;;23.12;22.95
35551;BME280;21655;46.056;13.616;2023-03-15T11:46:31;99775.28;;;23.50;23.93
35551;BME280;21655;46.056;13.616;2023-03-15T11:49:11;99778.00;;;24.71;22.89
35551;BME280;21655;46.056;13.616;2023-03-15T11:51:39;99776.00;;;23.92;22.48
35551;BME280;21655;46.056;13.616;2023-03-15T11:54:14;99791.50;;;22.30;23.08
35551;BME280;21655;46.056;13.616;2023-03-15T11:59:09;99787.91;;;24.34;22.83
35551;BME280;21655;46.056;13.616;2023-03-15T12:01:41;99790.84;;;25.47;22.13
35551;BME280;21655;46.056;13.616;2023-03-15T12:07:03;99786.66;;;25.88;21.74
35551;BME280;21655;46.056;13.616;2023-03-15T12:23:13;99816.34;;;16.62;27.59
35551;BME280;21655;46.056;13.616;2023-03-15T12:28:37;99802.31;;;15.77;28.36
35551;BME280;21655;46.056;13.616;2023-03-15T12:31:04;99789.28;;;15.64;28.85
35551;BME280;21655;46.056;13.616;2023-03-15T12:33:31;99795.38;;;15.55;29.69
35551;BME280;21655;46.056;13.616;2023-03-15T12:36:01;99791.69;;;15.85;29.81
35551;BME280;21655;46.056;13.616;2023-03-15T12:38:38;99800.91;;;15.92;28.57
35551;BME280;21655;46.056;13.616;2023-03-15T12:41:32;99799.13;;;15.73;27.46
35551;BME280;21655;46.056;13.616;2023-03-15T12:44:26;99803.63;;;15.74;28.84
35551;BME280;21655;46.056;13.616;2023-03-15T12:47:03;99802.22;;;15.21;27.99
35551;BME280;21655;46.056;13.616;2023-03-15T12:49:38;99804.81;;;15.23;29.07
35551;BME280;21655;46.056;13.616;2023-03-15T12:54:54;99796.19;;;14.87;29.62
35551;BME280;21655;46.056;13.616;2023-03-15T12:57:29;99812.69;;;14.89;31.47
35551;BME280;21655;46.056;13.616;2023-03-15T13:02:42;99809.72;;;15.34;29.49
35551;BME280;21655;46.056;13.616;2023-03-15T13:13:00;99801.72;;;17.13;26.30
35551;BME280;21655;46.056;13.616;2023-03-15T13:15:35;99813.19;;;16.76;27.19
35551;BME280;21655;46.056;13.616;2023-03-15T13:18:09;99802.28;;;16.50;27.44
35551;BME280;21655;46.056;13.616;2023-03-15T13:23:28;99807.44;;;15.18;27.39
35551;BME280;21655;46.056;13.616;2023-03-15T13:28:53;99818.19;;;14.58;27.52
35551;BME280;21655;46.056;13.616;2023-03-15T13:31:23;99809.34;;;15.17;27.31
35551;BME280;21655;46.056;13.616;2023-03-15T13:33:51;99810.13;;;15.93;28.14
35551;BME280;21655;46.056;13.616;2023-03-15T13:36:26;99806.78;;;16.87;26.58
35551;BME280;21655;46.056;13.616;2023-03-15T13:38:54;99810.81;;;17.56;24.83
35551;BME280;21655;46.056;13.616;2023-03-15T13:41:24;99818.81;;;18.35;24.52
35551;BME280;21655;46.056;13.616;2023-03-15T13:43:52;99809.31;;;19.21;22.66
35551;BME280;21655;46.056;13.616;2023-03-15T13:46:20;99820.34;;;19.50;23.72
35551;BME280;21655;46.056;13.616;2023-03-15T13:48:49;99810.16;;;19.33;22.83
35551;BME280;21655;46.056;13.616;2023-03-15T13:51:25;99813.75;;;17.61;24.22
35551;BME280;21655;46.056;13.616;2023-03-15T13:53:54;99818.41;;;18.08;24.43
35551;BME280;21655;46.056;13.616;2023-03-15T13:56:29;99829.47;;;17.92;23.25
35551;BME280;21655;46.056;13.616;2023-03-15T13:58:56;99820.75;;;17.70;23.85
35551;BME280;21655;46.056;13.616;2023-03-15T14:01:23;99826.88;;;16.84;24.65
35551;BME280;21655;46.056;13.616;2023-03-15T14:04:01;99829.06;;;15.66;24.65
35551;BME280;21655;46.056;13.616;2023-03-15T14:06:29;99827.25;;;15.03;24.68
35551;BME280;21655;46.056;13.616;2023-03-15T14:09:19;99838.56;;;15.15;25.69
35551;BME280;21655;46.056;13.616;2023-03-15T14:11:59;99854.81;;;15.37;25.08
35551;BME280;21655;46.056;13.616;2023-03-15T14:14:27;99852.84;;;15.44;24.63